sensor_id;sensor_type;location;lat;lon;timestamp;P1;durP1;ratioP1;P2;durP2;ratioP2
64875;SDS011;51369;49.862;9.908;2023-09-19T00:00:42;2.78;;;1.10;;
64875;SDS011;51369;49.862;9.908;2023-09-19T00:03:09;1.02;;;0.95;;
64875;SDS011;51369;49.862;9.908;2023-09-19T00:05:36;1.80;;;0.88;;
64875;SDS011;51369;49.862;9.908;2023-09-19T00:08:08;4.40;;;1.00;;
64875;SDS011;51369;49.862;9.908;2023-09-19T00:10:33;1.85;;;1.10;;
64875;SDS011;51369;49.862;9.908;2023-09-19T00:13:02;2.90;;;0.90;;
64875;SDS011;51369;49.862;9.908;2023-09-19T00:15:39;3.97;;;1.00;;
64875;SDS011;51369;49.862;9.908;2023-09-19T00:18:06;5.25;;;0.90;;
64875;SDS011;51369;49.862;9.908;2023-09-19T00:20:32;1.80;;;0.80;;
64875;SDS011;51369;49.862;9.908;2023-09-19T00:23:01;3.50;;;0.80;;
64875;SDS011;51369;49.862;9.908;2023-09-19T00:25:34;2.30;;;1.10;;
64875;SDS011;51369;49.862;9.908;2023-09-19T00:28:00;2.97;;;0.95;;
64875;SDS011;51369;49.862;9.908;2023-09-19T00:30:26;2.15;;;1.27;;
64875;SDS011;51369;49.862;9.908;2023-09-19T00:32:52;1.58;;;1.17;;
64875;SDS011;51369;49.862;9.908;2023-09-19T00:35:18;5.25;;;0.98;;
64875;SDS011;51369;49.862;9.908;2023-09-19T00:37:50;1.67;;;1.17;;
64875;SDS011;51369;49.862;9.908;2023-09-19T00:40:16;2.30;;;1.30;;
64875;SDS011;51369;49.862;9.908;2023-09-19T00:42:45;1.38;;;1.10;;
64875;SDS011;51369;49.862;9.908;2023-09-19T00:45:13;1.38;;;0.98;;
64875;SDS011;51369;49.862;9.908;2023-09-19T00:47:49;2.30;;;1.13;;
64875;SDS011;51369;49.862;9.908;2023-09-19T00:50:19;2.05;;;0.98;;
64875;SDS011;51369;49.862;9.908;2023-09-19T00:55:14;4.10;;;1.25;;
64875;SDS011;51369;49.862;9.908;2023-09-19T00:57:41;2.42;;;1.15;;
64875;SDS011;51369;49.862;9.908;2023-09-19T01:00:07;3.83;;;1.08;;
64875;SDS011;51369;49.862;9.908;2023-09-19T01:02:37;2.70;;;1.30;;
64875;SDS011;51369;49.862;9.908;2023-09-19T01:05:03;1.20;;;1.00;;
64875;SDS011;51369;49.862;9.908;2023-09-19T01:07:32;4.03;;;1.50;;
64875;SDS011;51369;49.862;9.908;2023-09-19T01:10:02;1.70;;;1.13;;
64875;SDS011;51369;49.862;9.908;2023-09-19T01:12:33;2.42;;;1.15;;
64875;SDS011;51369;49.862;9.908;2023-09-19T01:15:18;3.08;;;1.00;;
64875;SDS011;51369;49.862;9.908;2023-09-19T01:17:46;5.40;;;1.30;;
64875;SDS011;51369;49.862;9.908;2023-09-19T01:23:21;1.65;;;1.35;;
64875;SDS011;51369;49.862;9.908;2023-09-19T01:28:43;2.05;;;1.30;;
64875;SDS011;51369;49.862;9.908;2023-09-19T01:31:19;2.15;;;1.20;;
64875;SDS011;51369;49.862;9.908;2023-09-19T01:33:59;3.03;;;1.30;;
64875;SDS011;51369;49.862;9.908;2023-09-19T01:36:27;3.80;;;1.55;;
64875;SDS011;51369;49.862;9.908;2023-09-19T01:38:59;3.78;;;1.33;;
64875;SDS011;51369;49.862;9.908;2023-09-19T01:44:22;2.17;;;1.55;;
64875;SDS011;51369;49.862;9.908;2023-09-19T01:46:54;1.58;;;1.33;;
64875;SDS011;51369;49.862;9.908;2023-09-19T01:49:29;2.55;;;1.27;;
64875;SDS011;51369;49.862;9.908;2023-09-19T01:52:14;3.50;;;1.20;;
64875;SDS011;51369;49.862;9.908;2023-09-19T01:54:55;3.72;;;1.40;;
64875;SDS011;51369;49.862;9.908;2023-09-19T01:57:33;3.75;;;1.48;;
64875;SDS011;51369;49.862;9.908;2023-09-19T02:02:38;3.63;;;1.40;;
64875;SDS011;51369;49.862;9.908;2023-09-19T02:05:07;4.07;;;1.48;;
64875;SDS011;51369;49.862;9.908;2023-09-19T02:07:32;3.45;;;1.33;;
64875;SDS011;51369;49.862;9.908;2023-09-19T02:09:58;2.97;;;1.33;;
64875;SDS011;51369;49.862;9.908;2023-09-19T02:12:25;1.88;;;1.30;;
64875;SDS011;51369;49.862;9.908;2023-09-19T02:14:51;2.33;;;1.42;;
64875;SDS011;51369;49.862;9.908;2023-09-19T02:17:16;3.58;;;1.45;;
64875;SDS011;51369;49.862;9.908;2023-09-19T02:19:42;2.08;;;1.52;;
64875;SDS011;51369;49.862;9.908;2023-09-19T02:22:07;2.88;;;1.40;;
64875;SDS011;51369;49.862;9.908;2023-09-19T02:24:35;2.50;;;1.55;;
64875;SDS011;51369;49.862;9.908;2023-09-19T02:27:02;3.50;;;1.60;;
64875;SDS011;51369;49.862;9.908;2023-09-19T02:29:30;3.67;;;1.55;;
64875;SDS011;51369;49.862;9.908;2023-09-19T02:31:55;7.32;;;1.60;;
64875;SDS011;51369;49.862;9.908;2023-09-19T02:34:21;2.15;;;1.35;;
64875;SDS011;51369;49.862;9.908;2023-09-19T02:36:48;10.00;;;1.90;;
64875;SDS011;51369;49.862;9.908;2023-09-19T02:39:15;2.28;;;1.77;;
64875;SDS011;51369;49.862;9.908;2023-09-19T02:41:40;1.50;;;1.35;;
64875;SDS011;51369;49.862;9.908;2023-09-19T02:44:07;3.78;;;1.80;;
64875;SDS011;51369;49.862;9.908;2023-09-19T02:46:33;7.63;;;1.73;;
64875;SDS011;51369;49.862;9.908;2023-09-19T02:48:59;2.75;;;1.45;;
64875;SDS011;51369;49.862;9.908;2023-09-19T02:51:24;2.58;;;1.30;;
64875;SDS011;51369;49.862;9.908;2023-09-19T02:53:52;4.45;;;1.80;;
64875;SDS011;51369;49.862;9.908;2023-09-19T02:56:18;2.58;;;1.38;;
64875;SDS011;51369;49.862;9.908;2023-09-19T02:58:44;1.90;;;1.30;;
64875;SDS011;51369;49.862;9.908;2023-09-19T03:01:09;2.83;;;1.52;;
64875;SDS011;51369;49.862;9.908;2023-09-19T03:03:38;1.98;;;1.85;;
64875;SDS011;51369;49.862;9.908;2023-09-19T03:06:07;5.28;;;1.80;;
64875;SDS011;51369;49.862;9.908;2023-09-19T03:08:34;4.30;;;1.70;;
64875;SDS011;51369;49.862;9.908;2023-09-19T03:11:05;5.75;;;2.15;;
64875;SDS011;51369;49.862;9.908;2023-09-19T03:13:32;2.92;;;1.40;;
64875;SDS011;51369;49.862;9.908;2023-09-19T03:15:58;7.05;;;1.92;;
64875;SDS011;51369;49.862;9.908;2023-09-19T03:18:26;4.30;;;2.00;;
64875;SDS011;51369;49.862;9.908;2023-09-19T03:20:54;5.00;;;2.00;;
64875;SDS011;51369;49.862;9.908;2023-09-19T03:23:21;3.25;;;1.80;;
64875;SDS011;51369;49.862;9.908;2023-09-19T03:25:47;8.38;;;1.95;;
64875;SDS011;51369;49.862;9.908;2023-09-19T03:28:13;3.63;;;1.80;;
64875;SDS011;51369;49.862;9.908;2023-09-19T03:30:41;5.88;;;2.13;;
64875;SDS011;51369;49.862;9.908;2023-09-19T03:33:07;7.25;;;1.90;;
64875;SDS011;51369;49.862;9.908;2023-09-19T03:35:33;4.68;;;2.40;;
64875;SDS011;51369;49.862;9.908;2023-09-19T03:38:00;4.53;;;2.28;;
64875;SDS011;51369;49.862;9.908;2023-09-19T03:40:26;4.40;;;2.00;;
64875;SDS011;51369;49.862;9.908;2023-09-19T03:42:51;6.80;;;2.70;;
64875;SDS011;51369;49.862;9.908;2023-09-19T03:45:17;5.05;;;2.20;;
64875;SDS011;51369;49.862;9.908;2023-09-19T03:47:47;6.15;;;2.40;;
64875;SDS011;51369;49.862;9.908;2023-09-19T03:50:13;5.65;;;2.50;;
64875;SDS011;51369;49.862;9.908;2023-09-19T03:52:45;2.85;;;2.20;;
64875;SDS011;51369;49.862;9.908;2023-09-19T03:55:11;2.75;;;2.33;;
64875;SDS011;51369;49.862;9.908;2023-09-19T03:57:37;3.30;;;2.28;;
64875;SDS011;51369;49.862;9.908;2023-09-19T04:00:03;7.78;;;2.45;;
64875;SDS011;51369;49.862;9.908;2023-09-19T04:02:38;4.65;;;2.40;;
64875;SDS011;51369;49.862;9.908;2023-09-19T04:05:04;4.05;;;2.50;;
64875;SDS011;51369;49.862;9.908;2023-09-19T04:07:30;5.90;;;2.30;;
64875;SDS011;51369;49.862;9.908;2023-09-19T04:09:55;3.70;;;2.60;;
64875;SDS011;51369;49.862;9.908;2023-09-19T04:12:21;7.47;;;2.50;;
64875;SDS011;51369;49.862;9.908;2023-09-19T04:14:47;2.95;;;2.60;;
64875;SDS011;51369;49.862;9.908;2023-09-19T04:17:13;4.63;;;2.65;;
64875;SDS011;51369;49.862;9.908;2023-09-19T04:19:38;9.07;;;2.83;;
64875;SDS011;51369;49.862;9.908;2023-09-19T04:22:05;3.13;;;2.42;;
64875;SDS011;51369;49.862;9.908;2023-09-19T04:24:31;6.93;;;2.72;;
64875;SDS011;51369;49.862;9.908;2023-09-19T04:26:57;5.88;;;2.80;;
64875;SDS011;51369;49.862;9.908;2023-09-19T04:29:24;5.55;;;2.67;;
64875;SDS011;51369;49.862;9.908;2023-09-19T04:31:51;4.35;;;2.95;;
64875;SDS011;51369;49.862;9.908;2023-09-19T04:34:17;7.85;;;2.65;;
64875;SDS011;51369;49.862;9.908;2023-09-19T04:36:42;2.90;;;2.38;;
64875;SDS011;51369;49.862;9.908;2023-09-19T04:39:08;4.05;;;2.63;;
64875;SDS011;51369;49.862;9.908;2023-09-19T04:41:35;4.95;;;2.65;;
64875;SDS011;51369;49.862;9.908;2023-09-19T04:44:04;4.50;;;2.75;;
64875;SDS011;51369;49.862;9.908;2023-09-19T04:46:30;6.10;;;2.58;;
64875;SDS011;51369;49.862;9.908;2023-09-19T04:48:55;8.30;;;3.55;;
64875;SDS011;51369;49.862;9.908;2023-09-19T04:51:21;4.47;;;2.80;;
64875;SDS011;51369;49.862;9.908;2023-09-19T04:53:46;3.90;;;2.75;;
64875;SDS011;51369;49.862;9.908;2023-09-19T04:56:13;4.18;;;2.60;;
64875;SDS011;51369;49.862;9.908;2023-09-19T04:58:38;4.80;;;2.60;;
64875;SDS011;51369;49.862;9.908;2023-09-19T05:01:03;5.13;;;2.70;;
64875;SDS011;51369;49.862;9.908;2023-09-19T05:03:29;4.53;;;2.58;;
64875;SDS011;51369;49.862;9.908;2023-09-19T05:05:55;7.03;;;3.13;;
64875;SDS011;51369;49.862;9.908;2023-09-19T05:08:20;5.55;;;3.25;;
64875;SDS011;51369;49.862;9.908;2023-09-19T05:10:47;9.43;;;3.47;;
64875;SDS011;51369;49.862;9.908;2023-09-19T05:13:13;3.55;;;2.58;;
64875;SDS011;51369;49.862;9.908;2023-09-19T05:15:39;6.38;;;3.35;;
64875;SDS011;51369;49.862;9.908;2023-09-19T05:18:04;4.25;;;3.03;;
64875;SDS011;51369;49.862;9.908;2023-09-19T05:20:31;6.75;;;2.78;;
64875;SDS011;51369;49.862;9.908;2023-09-19T05:23:03;4.50;;;3.10;;
64875;SDS011;51369;49.862;9.908;2023-09-19T05:25:34;13.43;;;2.95;;
64875;SDS011;51369;49.862;9.908;2023-09-19T05:28:02;8.88;;;3.25;;
64875;SDS011;51369;49.862;9.908;2023-09-19T05:30:31;7.15;;;2.78;;
64875;SDS011;51369;49.862;9.908;2023-09-19T05:32:57;5.18;;;2.40;;
64875;SDS011;51369;49.862;9.908;2023-09-19T05:35:23;5.35;;;2.90;;
64875;SDS011;51369;49.862;9.908;2023-09-19T05:37:51;4.15;;;2.38;;
64875;SDS011;51369;49.862;9.908;2023-09-19T05:40:17;6.00;;;2.45;;
64875;SDS011;51369;49.862;9.908;2023-09-19T05:42:43;5.88;;;1.92;;
64875;SDS011;51369;49.862;9.908;2023-09-19T05:45:09;7.57;;;2.55;;
64875;SDS011;51369;49.862;9.908;2023-09-19T05:47:37;3.40;;;2.45;;
64875;SDS011;51369;49.862;9.908;2023-09-19T05:50:03;2.53;;;2.20;;
64875;SDS011;51369;49.862;9.908;2023-09-19T05:52:30;6.18;;;2.45;;
64875;SDS011;51369;49.862;9.908;2023-09-19T05:54:55;4.35;;;2.10;;
64875;SDS011;51369;49.862;9.908;2023-09-19T05:57:21;2.42;;;2.22;;
64875;SDS011;51369;49.862;9.908;2023-09-19T05:59:47;4.53;;;2.00;;
64875;SDS011;51369;49.862;9.908;2023-09-19T06:02:16;4.65;;;2.20;;
64875;SDS011;51369;49.862;9.908;2023-09-19T06:04:41;6.65;;;2.42;;
64875;SDS011;51369;49.862;9.908;2023-09-19T06:07:07;4.88;;;2.60;;
64875;SDS011;51369;49.862;9.908;2023-09-19T06:09:32;5.05;;;2.42;;
64875;SDS011;51369;49.862;9.908;2023-09-19T06:11:58;7.38;;;2.50;;
64875;SDS011;51369;49.862;9.908;2023-09-19T06:14:28;6.93;;;2.33;;
64875;SDS011;51369;49.862;9.908;2023-09-19T06:16:54;4.97;;;2.13;;
64875;SDS011;51369;49.862;9.908;2023-09-19T06:19:19;3.58;;;2.47;;
64875;SDS011;51369;49.862;9.908;2023-09-19T06:21:47;4.03;;;2.67;;
64875;SDS011;51369;49.862;9.908;2023-09-19T06:24:13;6.03;;;2.63;;
64875;SDS011;51369;49.862;9.908;2023-09-19T06:26:38;4.40;;;2.40;;
64875;SDS011;51369;49.862;9.908;2023-09-19T06:29:04;2.60;;;2.33;;
64875;SDS011;51369;49.862;9.908;2023-09-19T06:31:32;3.20;;;2.30;;
64875;SDS011;51369;49.862;9.908;2023-09-19T06:33:58;6.50;;;2.58;;
64875;SDS011;51369;49.862;9.908;2023-09-19T06:36:23;6.05;;;2.80;;
64875;SDS011;51369;49.862;9.908;2023-09-19T06:38:49;2.40;;;2.15;;
64875;SDS011;51369;49.862;9.908;2023-09-19T06:41:16;4.97;;;2.85;;
64875;SDS011;51369;49.862;9.908;2023-09-19T06:43:42;5.82;;;3.15;;
64875;SDS011;51369;49.862;9.908;2023-09-19T06:46:07;5.72;;;3.15;;
64875;SDS011;51369;49.862;9.908;2023-09-19T06:48:33;5.35;;;3.03;;
64875;SDS011;51369;49.862;9.908;2023-09-19T06:50:58;6.78;;;3.20;;
64875;SDS011;51369;49.862;9.908;2023-09-19T06:53:26;5.90;;;3.47;;
64875;SDS011;51369;49.862;9.908;2023-09-19T06:55:52;4.90;;;2.80;;
64875;SDS011;51369;49.862;9.908;2023-09-19T06:58:18;4.57;;;3.38;;
64875;SDS011;51369;49.862;9.908;2023-09-19T07:00:44;5.60;;;3.75;;
64875;SDS011;51369;49.862;9.908;2023-09-19T07:03:11;5.20;;;3.80;;
64875;SDS011;51369;49.862;9.908;2023-09-19T07:05:39;6.78;;;3.50;;
64875;SDS011;51369;49.862;9.908;2023-09-19T07:08:06;12.02;;;4.80;;
64875;SDS011;51369;49.862;9.908;2023-09-19T07:10:32;7.45;;;4.07;;
64875;SDS011;51369;49.862;9.908;2023-09-19T07:12:59;6.82;;;3.35;;
64875;SDS011;51369;49.862;9.908;2023-09-19T07:15:29;6.93;;;3.60;;
64875;SDS011;51369;49.862;9.908;2023-09-19T07:18:04;5.30;;;4.03;;
64875;SDS011;51369;49.862;9.908;2023-09-19T07:20:30;7.53;;;3.83;;
64875;SDS011;51369;49.862;9.908;2023-09-19T07:22:57;5.45;;;3.58;;
64875;SDS011;51369;49.862;9.908;2023-09-19T07:25:25;4.72;;;3.00;;
64875;SDS011;51369;49.862;9.908;2023-09-19T07:27:51;6.03;;;3.50;;
64875;SDS011;51369;49.862;9.908;2023-09-19T07:30:16;6.25;;;3.30;;
64875;SDS011;51369;49.862;9.908;2023-09-19T07:32:42;5.57;;;3.53;;
64875;SDS011;51369;49.862;9.908;2023-09-19T07:35:08;7.45;;;3.20;;
64875;SDS011;51369;49.862;9.908;2023-09-19T07:37:33;6.78;;;3.17;;
64875;SDS011;51369;49.862;9.908;2023-09-19T07:39:59;7.05;;;3.22;;
64875;SDS011;51369;49.862;9.908;2023-09-19T07:42:45;3.78;;;3.13;;
64875;SDS011;51369;49.862;9.908;2023-09-19T07:45:12;9.55;;;4.38;;
64875;SDS011;51369;49.862;9.908;2023-09-19T07:47:45;5.25;;;2.78;;
64875;SDS011;51369;49.862;9.908;2023-09-19T07:50:11;8.07;;;3.17;;
64875;SDS011;51369;49.862;9.908;2023-09-19T07:52:36;7.18;;;3.40;;
64875;SDS011;51369;49.862;9.908;2023-09-19T07:55:04;7.82;;;3.55;;
64875;SDS011;51369;49.862;9.908;2023-09-19T07:57:33;6.05;;;3.05;;
64875;SDS011;51369;49.862;9.908;2023-09-19T07:59:59;5.25;;;3.28;;
64875;SDS011;51369;49.862;9.908;2023-09-19T08:02:25;4.20;;;3.17;;
64875;SDS011;51369;49.862;9.908;2023-09-19T08:04:50;8.50;;;3.10;;
64875;SDS011;51369;49.862;9.908;2023-09-19T08:07:17;6.60;;;4.32;;
64875;SDS011;51369;49.862;9.908;2023-09-19T08:09:43;6.72;;;2.78;;
64875;SDS011;51369;49.862;9.908;2023-09-19T08:12:11;9.50;;;3.28;;
64875;SDS011;51369;49.862;9.908;2023-09-19T08:14:37;5.82;;;3.08;;
64875;SDS011;51369;49.862;9.908;2023-09-19T08:17:03;5.43;;;3.67;;
64875;SDS011;51369;49.862;9.908;2023-09-19T08:19:30;5.45;;;3.40;;
64875;SDS011;51369;49.862;9.908;2023-09-19T08:21:57;5.50;;;2.95;;
64875;SDS011;51369;49.862;9.908;2023-09-19T08:26:55;4.65;;;3.05;;
64875;SDS011;51369;49.862;9.908;2023-09-19T08:29:25;6.15;;;3.60;;
64875;SDS011;51369;49.862;9.908;2023-09-19T08:31:55;7.53;;;3.30;;
64875;SDS011;51369;49.862;9.908;2023-09-19T08:34:22;3.60;;;3.25;;
64875;SDS011;51369;49.862;9.908;2023-09-19T08:36:52;5.20;;;2.83;;
64875;SDS011;51369;49.862;9.908;2023-09-19T08:41:47;8.63;;;3.53;;
64875;SDS011;51369;49.862;9.908;2023-09-19T08:44:12;6.32;;;3.25;;
64875;SDS011;51369;49.862;9.908;2023-09-19T08:46:37;5.28;;;3.10;;
64875;SDS011;51369;49.862;9.908;2023-09-19T08:49:08;5.57;;;2.80;;
64875;SDS011;51369;49.862;9.908;2023-09-19T08:51:47;6.65;;;2.60;;
64875;SDS011;51369;49.862;9.908;2023-09-19T08:54:24;9.27;;;3.15;;
64875;SDS011;51369;49.862;9.908;2023-09-19T08:56:53;5.57;;;2.55;;
64875;SDS011;51369;49.862;9.908;2023-09-19T08:59:23;5.70;;;2.53;;
64875;SDS011;51369;49.862;9.908;2023-09-19T09:01:49;4.80;;;2.60;;
64875;SDS011;51369;49.862;9.908;2023-09-19T09:04:18;6.95;;;2.55;;
64875;SDS011;51369;49.862;9.908;2023-09-19T09:06:45;3.47;;;2.20;;
64875;SDS011;51369;49.862;9.908;2023-09-19T09:09:14;4.75;;;2.28;;
64875;SDS011;51369;49.862;9.908;2023-09-19T09:11:40;6.57;;;3.10;;
64875;SDS011;51369;49.862;9.908;2023-09-19T09:14:06;5.63;;;2.47;;
64875;SDS011;51369;49.862;9.908;2023-09-19T09:16:35;7.63;;;2.65;;
64875;SDS011;51369;49.862;9.908;2023-09-19T09:19:00;6.53;;;2.30;;
64875;SDS011;51369;49.862;9.908;2023-09-19T09:21:26;4.05;;;2.28;;
64875;SDS011;51369;49.862;9.908;2023-09-19T09:23:53;7.32;;;2.88;;
64875;SDS011;51369;49.862;9.908;2023-09-19T09:27:02;5.57;;;2.72;;
64875;SDS011;51369;49.862;9.908;2023-09-19T09:29:07;4.80;;;2.10;;
64875;SDS011;51369;49.862;9.908;2023-09-19T09:31:33;4.65;;;2.38;;
64875;SDS011;51369;49.862;9.908;2023-09-19T09:33:58;6.15;;;2.20;;
64875;SDS011;51369;49.862;9.908;2023-09-19T09:36:37;6.38;;;2.47;;
64875;SDS011;51369;49.862;9.908;2023-09-19T09:39:05;3.50;;;2.30;;
64875;SDS011;51369;49.862;9.908;2023-09-19T09:41:44;3.60;;;2.00;;
64875;SDS011;51369;49.862;9.908;2023-09-19T09:44:15;4.20;;;1.90;;
64875;SDS011;51369;49.862;9.908;2023-09-19T09:46:46;4.15;;;2.10;;
64875;SDS011;51369;49.862;9.908;2023-09-19T09:49:18;3.65;;;2.13;;
64875;SDS011;51369;49.862;9.908;2023-09-19T09:54:29;7.20;;;2.70;;
64875;SDS011;51369;49.862;9.908;2023-09-19T09:57:09;5.82;;;2.22;;
64875;SDS011;51369;49.862;9.908;2023-09-19T10:05:17;9.90;;;2.20;;
64875;SDS011;51369;49.862;9.908;2023-09-19T10:07:45;5.15;;;2.03;;
64875;SDS011;51369;49.862;9.908;2023-09-19T10:10:37;6.13;;;2.30;;
64875;SDS011;51369;49.862;9.908;2023-09-19T10:13:08;4.75;;;2.20;;
64875;SDS011;51369;49.862;9.908;2023-09-19T10:15:38;8.13;;;2.47;;
64875;SDS011;51369;49.862;9.908;2023-09-19T10:18:11;5.88;;;2.35;;
64875;SDS011;51369;49.862;9.908;2023-09-19T10:20:43;6.22;;;2.40;;
64875;SDS011;51369;49.862;9.908;2023-09-19T10:23:14;8.93;;;2.72;;
64875;SDS011;51369;49.862;9.908;2023-09-19T10:25:47;7.57;;;2.22;;
64875;SDS011;51369;49.862;9.908;2023-09-19T10:28:16;4.75;;;2.17;;
64875;SDS011;51369;49.862;9.908;2023-09-19T10:30:47;3.70;;;2.13;;
64875;SDS011;51369;49.862;9.908;2023-09-19T10:33:15;3.85;;;1.77;;
64875;SDS011;51369;49.862;9.908;2023-09-19T10:35:42;4.97;;;1.92;;
64875;SDS011;51369;49.862;9.908;2023-09-19T10:38:10;4.60;;;2.28;;
64875;SDS011;51369;49.862;9.908;2023-09-19T10:40:36;4.05;;;2.28;;
64875;SDS011;51369;49.862;9.908;2023-09-19T10:43:05;6.30;;;2.30;;
64875;SDS011;51369;49.862;9.908;2023-09-19T10:45:32;2.83;;;1.90;;
64875;SDS011;51369;49.862;9.908;2023-09-19T10:48:02;4.10;;;2.28;;
64875;SDS011;51369;49.862;9.908;2023-09-19T10:53:26;9.25;;;2.38;;
64875;SDS011;51369;49.862;9.908;2023-09-19T10:55:55;4.85;;;2.42;;
64875;SDS011;51369;49.862;9.908;2023-09-19T10:58:27;4.05;;;2.30;;
64875;SDS011;51369;49.862;9.908;2023-09-19T11:00:55;3.72;;;2.47;;
64875;SDS011;51369;49.862;9.908;2023-09-19T11:03:21;5.28;;;2.78;;
64875;SDS011;51369;49.862;9.908;2023-09-19T11:06:02;5.90;;;2.10;;
64875;SDS011;51369;49.862;9.908;2023-09-19T11:08:51;6.68;;;2.58;;
64875;SDS011;51369;49.862;9.908;2023-09-19T11:14:14;5.15;;;2.67;;
64875;SDS011;51369;49.862;9.908;2023-09-19T11:16:40;6.28;;;2.90;;
64875;SDS011;51369;49.862;9.908;2023-09-19T11:19:40;4.85;;;2.63;;
64875;SDS011;51369;49.862;9.908;2023-09-19T11:25:41;4.30;;;2.55;;
64875;SDS011;51369;49.862;9.908;2023-09-19T11:30:38;6.30;;;2.77;;
64875;SDS011;51369;49.862;9.908;2023-09-19T11:33:25;4.28;;;2.22;;
64875;SDS011;51369;49.862;9.908;2023-09-19T11:36:10;6.03;;;2.70;;
64875;SDS011;51369;49.862;9.908;2023-09-19T11:46:12;3.78;;;2.47;;
64875;SDS011;51369;49.862;9.908;2023-09-19T11:48:42;4.97;;;2.50;;
64875;SDS011;51369;49.862;9.908;2023-09-19T11:51:12;5.60;;;2.83;;
64875;SDS011;51369;49.862;9.908;2023-09-19T11:53:52;4.75;;;2.35;;
64875;SDS011;51369;49.862;9.908;2023-09-19T11:56:19;3.53;;;2.20;;
64875;SDS011;51369;49.862;9.908;2023-09-19T11:58:48;4.07;;;2.03;;
64875;SDS011;51369;49.862;9.908;2023-09-19T12:01:16;5.28;;;2.67;;
64875;SDS011;51369;49.862;9.908;2023-09-19T12:03:55;5.68;;;2.50;;
64875;SDS011;51369;49.862;9.908;2023-09-19T12:06:23;3.25;;;2.40;;
64875;SDS011;51369;49.862;9.908;2023-09-19T12:08:50;4.90;;;2.58;;
64875;SDS011;51369;49.862;9.908;2023-09-19T12:11:19;6.22;;;2.75;;
64875;SDS011;51369;49.862;9.908;2023-09-19T12:13:47;3.35;;;2.08;;
64875;SDS011;51369;49.862;9.908;2023-09-19T12:16:17;2.65;;;2.17;;
64875;SDS011;51369;49.862;9.908;2023-09-19T12:18:47;5.32;;;2.72;;
64875;SDS011;51369;49.862;9.908;2023-09-19T12:21:52;4.50;;;2.20;;
64875;SDS011;51369;49.862;9.908;2023-09-19T12:24:15;3.67;;;2.20;;
64875;SDS011;51369;49.862;9.908;2023-09-19T12:26:45;2.72;;;2.17;;
64875;SDS011;51369;49.862;9.908;2023-09-19T12:29:20;3.08;;;2.50;;
64875;SDS011;51369;49.862;9.908;2023-09-19T12:31:50;5.20;;;2.38;;
64875;SDS011;51369;49.862;9.908;2023-09-19T12:34:29;5.75;;;2.58;;
64875;SDS011;51369;49.862;9.908;2023-09-19T12:37:06;5.63;;;2.40;;
64875;SDS011;51369;49.862;9.908;2023-09-19T12:39:42;4.85;;;1.80;;
64875;SDS011;51369;49.862;9.908;2023-09-19T12:42:12;6.60;;;2.47;;
64875;SDS011;51369;49.862;9.908;2023-09-19T12:44:42;4.47;;;2.50;;
64875;SDS011;51369;49.862;9.908;2023-09-19T12:47:13;4.28;;;2.17;;
64875;SDS011;51369;49.862;9.908;2023-09-19T12:52:35;5.63;;;2.40;;
64875;SDS011;51369;49.862;9.908;2023-09-19T12:55:01;3.78;;;2.05;;
64875;SDS011;51369;49.862;9.908;2023-09-19T12:57:27;4.45;;;2.30;;
64875;SDS011;51369;49.862;9.908;2023-09-19T12:59:53;5.18;;;2.38;;
64875;SDS011;51369;49.862;9.908;2023-09-19T13:02:20;12.73;;;2.15;;
64875;SDS011;51369;49.862;9.908;2023-09-19T13:04:52;3.58;;;2.30;;
64875;SDS011;51369;49.862;9.908;2023-09-19T13:10:08;5.07;;;1.70;;
64875;SDS011;51369;49.862;9.908;2023-09-19T13:12:35;2.60;;;2.00;;
64875;SDS011;51369;49.862;9.908;2023-09-19T13:15:15;4.40;;;2.00;;
64875;SDS011;51369;49.862;9.908;2023-09-19T13:17:49;2.95;;;2.00;;
64875;SDS011;51369;49.862;9.908;2023-09-19T13:20:21;3.47;;;1.70;;
64875;SDS011;51369;49.862;9.908;2023-09-19T13:22:52;4.78;;;2.50;;
64875;SDS011;51369;49.862;9.908;2023-09-19T13:25:20;3.83;;;2.05;;
64875;SDS011;51369;49.862;9.908;2023-09-19T13:27:48;5.20;;;2.50;;
64875;SDS011;51369;49.862;9.908;2023-09-19T13:30:16;3.33;;;1.80;;
64875;SDS011;51369;49.862;9.908;2023-09-19T13:32:43;7.50;;;2.38;;
64875;SDS011;51369;49.862;9.908;2023-09-19T13:35:08;3.33;;;1.95;;
64875;SDS011;51369;49.862;9.908;2023-09-19T13:37:35;5.45;;;2.58;;
64875;SDS011;51369;49.862;9.908;2023-09-19T13:40:09;5.95;;;1.92;;
64875;SDS011;51369;49.862;9.908;2023-09-19T13:42:36;4.80;;;1.90;;
64875;SDS011;51369;49.862;9.908;2023-09-19T13:45:05;4.97;;;1.90;;
64875;SDS011;51369;49.862;9.908;2023-09-19T13:47:31;4.78;;;1.92;;
64875;SDS011;51369;49.862;9.908;2023-09-19T13:49:57;4.65;;;1.70;;
64875;SDS011;51369;49.862;9.908;2023-09-19T13:52:26;7.15;;;2.00;;
64875;SDS011;51369;49.862;9.908;2023-09-19T13:54:54;4.43;;;1.80;;
64875;SDS011;51369;49.862;9.908;2023-09-19T13:57:22;4.38;;;1.70;;
64875;SDS011;51369;49.862;9.908;2023-09-19T13:59:51;2.92;;;1.60;;
64875;SDS011;51369;49.862;9.908;2023-09-19T14:02:19;5.72;;;2.13;;
64875;SDS011;51369;49.862;9.908;2023-09-19T14:04:48;4.63;;;1.70;;
64875;SDS011;51369;49.862;9.908;2023-09-19T14:07:13;2.45;;;1.48;;
64875;SDS011;51369;49.862;9.908;2023-09-19T14:09:40;3.03;;;2.17;;
64875;SDS011;51369;49.862;9.908;2023-09-19T14:12:05;4.20;;;1.85;;
64875;SDS011;51369;49.862;9.908;2023-09-19T14:14:32;4.47;;;2.00;;
64875;SDS011;51369;49.862;9.908;2023-09-19T14:16:57;3.05;;;1.50;;
64875;SDS011;51369;49.862;9.908;2023-09-19T14:19:25;7.32;;;2.60;;
64875;SDS011;51369;49.862;9.908;2023-09-19T14:21:51;3.67;;;2.00;;
64875;SDS011;51369;49.862;9.908;2023-09-19T14:24:17;3.15;;;1.80;;
64875;SDS011;51369;49.862;9.908;2023-09-19T14:26:43;3.10;;;1.80;;
64875;SDS011;51369;49.862;9.908;2023-09-19T14:29:09;2.95;;;1.80;;
64875;SDS011;51369;49.862;9.908;2023-09-19T14:31:37;2.60;;;2.15;;
64875;SDS011;51369;49.862;9.908;2023-09-19T14:34:06;2.97;;;1.95;;
64875;SDS011;51369;49.862;9.908;2023-09-19T14:36:32;3.15;;;1.45;;
64875;SDS011;51369;49.862;9.908;2023-09-19T14:39:01;5.50;;;2.08;;
64875;SDS011;51369;49.862;9.908;2023-09-19T14:41:26;5.78;;;2.03;;
64875;SDS011;51369;49.862;9.908;2023-09-19T14:43:52;3.05;;;1.70;;
64875;SDS011;51369;49.862;9.908;2023-09-19T14:46:17;3.92;;;1.80;;
64875;SDS011;51369;49.862;9.908;2023-09-19T14:48:44;3.60;;;2.00;;
64875;SDS011;51369;49.862;9.908;2023-09-19T14:51:12;3.75;;;1.95;;
64875;SDS011;51369;49.862;9.908;2023-09-19T14:53:38;7.63;;;1.95;;
64875;SDS011;51369;49.862;9.908;2023-09-19T14:56:05;4.05;;;1.88;;
64875;SDS011;51369;49.862;9.908;2023-09-19T14:58:32;4.28;;;2.10;;
64875;SDS011;51369;49.862;9.908;2023-09-19T15:01:11;3.40;;;1.60;;
64875;SDS011;51369;49.862;9.908;2023-09-19T15:03:38;4.38;;;2.05;;
64875;SDS011;51369;49.862;9.908;2023-09-19T15:06:06;7.35;;;2.08;;
64875;SDS011;51369;49.862;9.908;2023-09-19T15:08:34;6.28;;;2.17;;
64875;SDS011;51369;49.862;9.908;2023-09-19T15:11:04;9.40;;;2.72;;
64875;SDS011;51369;49.862;9.908;2023-09-19T15:13:33;3.00;;;1.83;;
64875;SDS011;51369;49.862;9.908;2023-09-19T15:16:00;5.50;;;1.88;;
64875;SDS011;51369;49.862;9.908;2023-09-19T15:18:30;4.13;;;2.00;;
64875;SDS011;51369;49.862;9.908;2023-09-19T15:21:02;2.47;;;1.77;;
64875;SDS011;51369;49.862;9.908;2023-09-19T15:23:35;2.55;;;1.80;;
64875;SDS011;51369;49.862;9.908;2023-09-19T15:26:05;4.57;;;1.85;;
64875;SDS011;51369;49.862;9.908;2023-09-19T15:28:31;6.47;;;2.30;;
64875;SDS011;51369;49.862;9.908;2023-09-19T15:31:05;2.58;;;1.50;;
64875;SDS011;51369;49.862;9.908;2023-09-19T15:33:32;5.80;;;1.73;;
64875;SDS011;51369;49.862;9.908;2023-09-19T15:36:05;4.43;;;1.92;;
64875;SDS011;51369;49.862;9.908;2023-09-19T15:38:50;3.25;;;2.13;;
64875;SDS011;51369;49.862;9.908;2023-09-19T15:41:27;7.47;;;1.98;;
64875;SDS011;51369;49.862;9.908;2023-09-19T15:43:57;4.68;;;1.90;;
64875;SDS011;51369;49.862;9.908;2023-09-19T15:46:29;6.03;;;1.70;;
64875;SDS011;51369;49.862;9.908;2023-09-19T15:48:56;5.55;;;1.98;;